Weather at Lac Berthelot Seaplane Base

Public forecast

Using degrees Celsius for public forecast. Weather courtesy of forecast.io.

Closest aviation weather report (METAR) to Lac Berthelot Seaplane Base

Closest report is Val-d'Or Airport, 70.5 nm (130.6 km) WSW. Retrieved 2020/11/28 16:00 UTC (38 minutes ago):

CYVO 281600Z 23007KT 190V260 15SM SCT011 BKN030 BKN050 00/M01 A2977 RMK SF4SC1SC2 SLP102

Closest aviation forecast (TAF) to Lac Berthelot Seaplane Base

Closest forecast is Val-d'Or Airport, 70.5 nm (130.6 km) WSW. Retrieved 2020/11/28 12:00 UTC (5 hours ago):

TAF CYVO 281142Z 2812/2824 20006KT P6SM OVC040 TEMPO 2812/2814 5SM -SN OVC020 PROB30 2812/2814 OVC006 FM281700 22010KT P6SM OVC040 TEMPO 2817/2824 21/2SM -SN OVC020 RMK NXT FCST BY 281800Z